Time;durP1;ratioP1;P1;durP2;ratioP2;P2;SDS_P1;SDS_P2;PMS_P1;PMS_P2;Temp;Humidity;BMP_temperature;BMP_pressure;BME280_temperature;BME280_humidity;BME280_pressure;Samples;Min_cycle;Max_cycle;Signal;HPM_P1;HPM_P2
2022/02/10 00:16:01;;;;;;;17.15;7.07;;;;;;;;;;6261400;28;20045;-66
2022/02/10 00:19:33;;;;;;;19.05;7.95;;;;;;;;;;6259845;28;20041;-66
2022/02/10 00:22:46;;;;;;;14.88;7.63;;;;;;;;;;6254380;28;20048;-66
2022/02/10 00:35:53;;;;;;;21.85;8.63;;;;;;;;;;6253191;28;20073;-66
2022/02/10 00:39:04;;;;;;;11.77;7.10;;;;;;;;;;6260042;28;20056;-65
2022/02/10 00:42:06;;;;;;;16.25;8.13;;;;;;;;;;6256903;28;20103;-68
2022/02/10 00:45:08;;;;;;;14.48;7.63;;;;;;;;;;6253813;28;20106;-66
2022/02/10 00:48:11;;;;;;;13.90;7.25;;;;;;;;;;6255835;28;20225;-65
2022/02/10 00:51:14;;;;;;;12.77;6.78;;;;;;;;;;6253390;28;20049;-65
2022/02/10 00:54:19;;;;;;;14.10;7.27;;;;;;;;;;6257997;28;20123;-65
2022/02/10 00:57:22;;;;;;;15.93;7.43;;;;;;;;;;6254328;28;20124;-65
2022/02/10 01:07:05;;;;;;;19.95;7.10;;;;;;;;;;6254796;28;20041;-65
2022/02/10 01:10:34;;;;;;;17.38;7.53;;;;;;;;;;6257325;28;20400;-65
2022/02/10 01:13:50;;;;;;;15.88;7.10;;;;;;;;;;6255927;28;20100;-66
2022/02/10 01:30:08;;;;;;;13.10;6.57;;;;;;;;;;6242806;28;20052;-65
2022/02/10 01:33:11;;;;;;;12.52;6.40;;;;;;;;;;6253925;28;20474;-66
2022/02/10 01:36:13;;;;;;;17.65;7.28;;;;;;;;;;6260718;28;20424;-65
2022/02/10 01:39:20;;;;;;;13.85;6.40;;;;;;;;;;6257589;28;20061;-64
2022/02/10 02:05:53;;;;;;;18.70;6.70;;;;;;;;;;6255905;28;20046;-66
2022/02/10 02:08:58;;;;;;;15.05;7.40;;;;;;;;;;6261020;28;20516;-65
2022/02/10 02:12:02;;;;;;;14.75;6.63;;;;;;;;;;6256635;28;20618;-66
2022/02/10 02:15:04;;;;;;;18.35;7.05;;;;;;;;;;6256308;28;20111;-66
2022/02/10 02:18:05;;;;;;;13.73;6.80;;;;;;;;;;6257273;28;20116;-66
2022/02/10 02:21:07;;;;;;;15.50;6.72;;;;;;;;;;6258037;28;20514;-65
2022/02/10 02:24:13;;;;;;;13.18;6.45;;;;;;;;;;6259979;28;20140;-65
2022/02/10 02:27:17;;;;;;;16.80;7.53;;;;;;;;;;6261777;28;20357;-66
2022/02/10 02:30:22;;;;;;;13.98;6.93;;;;;;;;;;6254575;28;20037;-66
2022/02/10 02:34:02;;;;;;;13.23;6.68;;;;;;;;;;6261184;28;20182;-65
2022/02/10 02:37:35;;;;;;;15.18;6.60;;;;;;;;;;6260270;28;20053;-66
2022/02/10 03:07:34;;;;;;;13.43;6.50;;;;;;;;;;6228561;28;20124;-66
2022/02/10 03:10:58;;;;;;;12.95;6.63;;;;;;;;;;6263990;28;20401;-66
2022/02/10 03:14:06;;;;;;;21.33;7.10;;;;;;;;;;6258682;28;20041;-66
2022/02/10 03:20:43;;;;;;;13.13;7.00;;;;;;;;;;6258088;28;20049;-66
2022/02/10 04:00:58;;;;;;;13.65;8.18;;;;;;;;;;6256772;28;20486;-65
2022/02/10 04:11:08;;;;;;;14.75;9.05;;;;;;;;;;6236893;28;20052;-66
2022/02/10 04:14:17;;;;;;;17.25;8.43;;;;;;;;;;6254318;28;20276;-66
2022/02/10 04:17:39;;;;;;;16.75;8.60;;;;;;;;;;6256683;28;20414;-67
2022/02/10 04:20:55;;;;;;;17.88;9.30;;;;;;;;;;6254580;28;20073;-65
2022/02/10 04:24:18;;;;;;;13.73;8.80;;;;;;;;;;6253637;28;20519;-66
2022/02/10 04:27:34;;;;;;;18.25;8.63;;;;;;;;;;6256596;28;20050;-65
2022/02/10 04:30:58;;;;;;;21.77;9.20;;;;;;;;;;6262707;28;20600;-65
2022/02/10 05:01:03;;;;;;;16.55;9.88;;;;;;;;;;6256779;28;20056;-66
2022/02/10 05:17:51;;;;;;;20.05;9.88;;;;;;;;;;6256657;28;20456;-65
2022/02/10 05:21:24;;;;;;;16.35;9.40;;;;;;;;;;6263375;28;20045;-65
2022/02/10 05:24:44;;;;;;;14.38;9.27;;;;;;;;;;6257775;28;20044;-65
2022/02/10 05:31:54;;;;;;;20.52;10.27;;;;;;;;;;6210763;28;20087;-65
2022/02/10 05:34:57;;;;;;;21.33;10.10;;;;;;;;;;6258148;28;20042;-65
2022/02/10 05:38:06;;;;;;;19.15;10.93;;;;;;;;;;6263622;28;20047;-66
2022/02/10 05:44:51;;;;;;;18.58;10.90;;;;;;;;;;6252810;28;20141;-65
2022/02/10 05:48:17;;;;;;;19.38;11.18;;;;;;;;;;6264452;28;20493;-66
2022/02/10 05:54:45;;;;;;;22.55;10.82;;;;;;;;;;6261787;28;20049;-66
2022/02/10 05:57:52;;;;;;;17.55;10.98;;;;;;;;;;6261258;28;20055;-65
2022/02/10 06:51:35;;;;;;;21.48;9.88;;;;;;;;;;6256610;28;20083;-66
2022/02/10 06:54:51;;;;;;;15.73;8.57;;;;;;;;;;6257843;28;20045;-66
2022/02/10 07:08:18;;;;;;;26.73;9.68;;;;;;;;;;6255228;28;20087;-65
2022/02/10 07:11:50;;;;;;;20.25;9.30;;;;;;;;;;6256993;28;20057;-65
2022/02/10 07:55:23;;;;;;;23.33;9.50;;;;;;;;;;6293913;27;21115;-65
2022/02/10 07:58:46;;;;;;;20.95;10.43;;;;;;;;;;6271024;28;20083;-65
2022/02/10 08:55:30;;;;;;;18.05;11.30;;;;;;;;;;6269037;28;20049;-65
2022/02/10 08:58:56;;;;;;;21.17;10.93;;;;;;;;;;6271632;28;20126;-65
2022/02/10 09:02:18;;;;;;;20.70;11.40;;;;;;;;;;6279448;28;20045;-65
2022/02/10 09:05:32;;;;;;;20.45;12.07;;;;;;;;;;6257060;28;20131;-65
2022/02/10 09:09:23;;;;;;;25.05;11.85;;;;;;;;;;6253202;28;20405;-65
2022/02/10 09:12:42;;;;;;;25.67;12.48;;;;;;;;;;6252418;28;20060;-65
2022/02/10 09:59:49;;;;;;;24.13;12.07;;;;;;;;;;6301552;28;20079;-65
2022/02/10 10:02:56;;;;;;;23.20;11.88;;;;;;;;;;6311452;28;20101;-65
2022/02/10 10:06:05;;;;;;;25.05;12.60;;;;;;;;;;6305579;28;20052;-65
2022/02/10 10:09:22;;;;;;;20.23;12.10;;;;;;;;;;6302078;28;20056;-65
2022/02/10 10:15:50;;;;;;;26.70;13.55;;;;;;;;;;6304764;28;20441;-64
2022/02/10 10:19:05;;;;;;;22.13;13.82;;;;;;;;;;6301660;28;20198;-64
2022/02/10 10:22:21;;;;;;;28.80;14.20;;;;;;;;;;6308695;28;20044;-65
2022/02/10 10:26:04;;;;;;;29.02;13.90;;;;;;;;;;6306653;28;20055;-64
2022/02/10 10:49:41;;;;;;;26.95;14.07;;;;;;;;;;6297890;28;20047;-65
2022/02/10 10:53:03;;;;;;;;;;;;;;;;;;6304322;28;20179;-64
2022/02/10 10:56:09;;;;;;;25.30;13.38;;;;;;;;;;6303616;28;19927;-64
2022/02/10 11:36:32;;;;;;;24.23;13.82;;;;;;;;;;6303890;28;20048;-64
2022/02/10 11:39:48;;;;;;;26.77;12.93;;;;;;;;;;6305287;28;20141;-64
2022/02/10 11:43:12;;;;;;;21.70;12.50;;;;;;;;;;6299848;28;20062;-64
2022/02/10 11:46:47;;;;;;;26.30;12.32;;;;;;;;;;6301329;28;20056;-64
2022/02/10 12:00:30;;;;;;;21.10;11.32;;;;;;;;;;6305187;28;20056;-64
2022/02/10 12:37:22;;;;;;;33.45;17.55;;;;;;;;;;6304730;28;20052;-64
2022/02/10 13:48:40;;;;;;;18.73;10.25;;;;;;;;;;6307820;28;20511;-65
2022/02/10 14:15:11;;;;;;;29.55;8.32;;;;;;;;;;6304947;28;20052;-65
2022/02/10 14:18:23;;;;;;;18.83;7.75;;;;;;;;;;6311606;28;20048;-64
2022/02/10 14:21:32;;;;;;;17.63;6.40;;;;;;;;;;6309101;28;20068;-65
2022/02/10 14:27:53;;;;;;;21.73;8.48;;;;;;;;;;6306131;28;20044;-65
2022/02/10 14:30:55;;;;;;;20.88;9.57;;;;;;;;;;6306611;28;20277;-65
2022/02/10 14:33:58;;;;;;;17.63;9.38;;;;;;;;;;6303445;28;20048;-66
2022/02/10 14:37:12;;;;;;;16.33;9.93;;;;;;;;;;6311309;28;20040;-64
2022/02/10 14:40:28;;;;;;;;;;;;;;;;;;6300116;28;20437;-64
2022/02/10 15:10:50;;;;;;;20.63;10.02;;;;;;;;;;6305126;28;19927;-65
2022/02/10 15:17:37;;;;;;;25.95;10.85;;;;;;;;;;6205113;28;20436;-65
2022/02/10 15:21:20;;;;;;;;;;;;;;;;;;6301113;28;20177;-66
2022/02/10 15:52:08;;;;;;;15.82;8.75;;;;;;;;;;6204889;28;20076;-65
2022/02/10 16:12:35;;;;;;;18.60;8.20;;;;;;;;;;6300889;28;20058;-65
2022/02/10 16:18:45;;;;;;;16.23;7.47;;;;;;;;;;6302930;28;20063;-66
2022/02/10 16:21:59;;;;;;;18.73;7.55;;;;;;;;;;6307627;28;20186;-65
2022/02/10 16:25:04;;;;;;;16.00;8.40;;;;;;;;;;6310352;28;20048;-65
2022/02/10 16:28:12;;;;;;;21.02;8.90;;;;;;;;;;6308204;28;20468;-66
2022/02/10 16:31:15;;;;;;;21.48;8.43;;;;;;;;;;6306641;28;20052;-65
2022/02/10 16:34:18;;;;;;;17.70;9.70;;;;;;;;;;6306777;28;20101;-65
2022/02/10 16:37:21;;;;;;;23.23;9.52;;;;;;;;;;6309393;28;20089;-65
2022/02/10 16:40:22;;;;;;;25.42;10.07;;;;;;;;;;6308096;28;20141;-65
2022/02/10 16:43:24;;;;;;;22.80;10.43;;;;;;;;;;6308307;28;20086;-66
2022/02/10 16:46:26;;;;;;;22.48;10.07;;;;;;;;;;6304618;28;20270;-65
2022/02/10 16:49:29;;;;;;;19.88;10.38;;;;;;;;;;6304445;28;20456;-66
2022/02/10 16:52:36;;;;;;;20.23;10.15;;;;;;;;;;6302345;28;20120;-65
2022/02/10 16:55:45;;;;;;;19.67;9.27;;;;;;;;;;6304381;28;20060;-66
2022/02/10 16:58:55;;;;;;;19.15;9.30;;;;;;;;;;6306879;28;20124;-65
2022/02/10 17:05:34;;;;;;;17.80;8.75;;;;;;;;;;6301358;28;20075;-65
2022/02/10 17:18:51;;;;;;;15.15;8.05;;;;;;;;;;6297008;28;20097;-66
2022/02/10 17:25:19;;;;;;;19.10;8.25;;;;;;;;;;6301705;28;20493;-65
2022/02/10 17:28:21;;;;;;;19.65;8.90;;;;;;;;;;6304273;28;20051;-66
2022/02/10 17:31:41;;;;;;;21.65;7.60;;;;;;;;;;6305790;28;20187;-65
2022/02/10 17:35:16;;;;;;;16.75;8.95;;;;;;;;;;6305238;28;20052;-65
2022/02/10 17:42:09;;;;;;;19.70;9.27;;;;;;;;;;6305179;28;20052;-65
2022/02/10 17:51:59;;;;;;;21.92;9.55;;;;;;;;;;6311735;28;20040;-66
2022/02/10 17:55:02;;;;;;;18.40;9.63;;;;;;;;;;6308760;28;20059;-65
2022/02/10 17:58:03;;;;;;;20.27;8.82;;;;;;;;;;6304106;28;20139;-65
2022/02/10 18:01:06;;;;;;;17.80;9.00;;;;;;;;;;6305479;28;20511;-66
2022/02/10 18:04:08;;;;;;;16.48;9.02;;;;;;;;;;6306532;28;20147;-65
2022/02/10 18:07:10;;;;;;;23.70;9.57;;;;;;;;;;6307426;28;20052;-66
2022/02/10 18:10:45;;;;;;;19.85;8.93;;;;;;;;;;6304188;28;20049;-66
2022/02/10 18:13:46;;;;;;;21.40;9.30;;;;;;;;;;6312024;28;20053;-65
2022/02/10 18:16:51;;;;;;;15.38;8.10;;;;;;;;;;6306587;28;20408;-66
2022/02/10 18:19:56;;;;;;;18.95;8.48;;;;;;;;;;6305369;28;20048;-65
2022/02/10 18:23:10;;;;;;;15.20;8.98;;;;;;;;;;6304799;28;20052;-66
2022/02/10 18:26:16;;;;;;;18.25;8.88;;;;;;;;;;6305156;28;20041;-65
2022/02/10 18:29:32;;;;;;;22.23;9.82;;;;;;;;;;6307043;28;20040;-65
2022/02/10 19:09:23;;;;;;;30.42;11.70;;;;;;;;;;6290918;28;20080;-65
2022/02/10 19:12:27;;;;;;;34.50;13.02;;;;;;;;;;6303402;28;20127;-66
2022/02/10 19:15:34;;;;;;;18.48;10.93;;;;;;;;;;6302778;28;20066;-65
2022/02/10 19:18:35;;;;;;;22.77;10.95;;;;;;;;;;6302384;28;20047;-65
2022/02/10 19:21:38;;;;;;;20.45;11.05;;;;;;;;;;6305681;28;20070;-66
2022/02/10 19:24:40;;;;;;;21.70;12.20;;;;;;;;;;6307132;28;20549;-65
2022/02/10 19:27:43;;;;;;;32.10;13.32;;;;;;;;;;6308442;28;20264;-65
2022/02/10 19:30:48;;;;;;;27.83;12.27;;;;;;;;;;6301073;28;20048;-65
2022/02/10 19:33:53;;;;;;;25.27;13.48;;;;;;;;;;6303315;28;20047;-66
2022/02/10 19:36:54;;;;;;;26.60;13.68;;;;;;;;;;6303348;28;20044;-65
2022/02/10 19:39:58;;;;;;;28.27;13.02;;;;;;;;;;6306060;28;20063;-66
2022/02/10 19:43:00;;;;;;;24.20;12.10;;;;;;;;;;6307082;28;20059;-66
2022/02/10 19:46:03;;;;;;;26.88;12.88;;;;;;;;;;6299645;28;20463;-65
2022/02/10 19:49:04;;;;;;;30.85;13.63;;;;;;;;;;6310744;28;20064;-66
2022/02/10 19:52:07;;;;;;;23.52;13.65;;;;;;;;;;6308643;28;20735;-65
2022/02/10 19:55:12;;;;;;;21.35;12.65;;;;;;;;;;6308715;28;20044;-66
2022/02/10 19:58:19;;;;;;;29.77;14.25;;;;;;;;;;6312302;28;20237;-66
2022/02/10 20:01:23;;;;;;;27.20;13.15;;;;;;;;;;6304719;28;20540;-65
2022/02/10 20:04:26;;;;;;;24.77;12.70;;;;;;;;;;6312278;28;20048;-66
2022/02/10 20:07:28;;;;;;;31.45;13.38;;;;;;;;;;6307691;28;20078;-65
2022/02/10 20:10:29;;;;;;;29.92;13.98;;;;;;;;;;6304654;28;20071;-65
2022/02/10 20:13:32;;;;;;;24.40;13.65;;;;;;;;;;6305071;28;20273;-65
2022/02/10 20:16:35;;;;;;;27.08;13.25;;;;;;;;;;6296698;28;20168;-65
2022/02/10 20:19:37;;;;;;;36.65;14.77;;;;;;;;;;6302566;28;20048;-65
2022/02/10 20:22:39;;;;;;;42.00;14.57;;;;;;;;;;6302530;28;20052;-64
2022/02/10 20:25:40;;;;;;;30.73;14.50;;;;;;;;;;6305399;28;20056;-65
2022/02/10 20:28:43;;;;;;;26.10;14.43;;;;;;;;;;6303820;28;20272;-66
2022/02/10 20:31:46;;;;;;;27.88;13.85;;;;;;;;;;6305983;28;20128;-65
2022/02/10 20:34:48;;;;;;;28.85;14.75;;;;;;;;;;6303886;28;20127;-66
2022/02/10 20:37:56;;;;;;;28.70;14.77;;;;;;;;;;6307644;28;20040;-65
2022/02/10 20:40:59;;;;;;;29.20;14.75;;;;;;;;;;6303648;28;20036;-65
2022/02/10 20:44:01;;;;;;;28.67;14.77;;;;;;;;;;6300966;28;20119;-65
2022/02/10 20:47:05;;;;;;;22.98;14.02;;;;;;;;;;6300671;28;20052;-65
2022/02/10 20:50:08;;;;;;;30.13;14.77;;;;;;;;;;6303827;28;20495;-65
2022/02/10 20:53:09;;;;;;;24.85;14.00;;;;;;;;;;6302062;28;20400;-65
2022/02/10 20:56:12;;;;;;;24.23;13.98;;;;;;;;;;6303242;28;20109;-65
2022/02/10 20:59:22;;;;;;;22.45;13.38;;;;;;;;;;6306004;28;20460;-66
2022/02/10 21:02:32;;;;;;;24.48;13.13;;;;;;;;;;6304042;28;20094;-66
2022/02/10 21:05:38;;;;;;;20.27;12.60;;;;;;;;;;6307253;28;20198;-66
2022/02/10 21:08:47;;;;;;;29.02;13.70;;;;;;;;;;6309924;28;20079;-65
2022/02/10 21:11:52;;;;;;;21.58;13.63;;;;;;;;;;6309890;28;20075;-65
2022/02/10 21:14:54;;;;;;;21.70;12.65;;;;;;;;;;6306481;28;20036;-66
2022/02/10 21:18:01;;;;;;;26.35;12.73;;;;;;;;;;6310337;28;20061;-66
2022/02/10 21:21:08;;;;;;;26.98;12.93;;;;;;;;;;6313510;28;20071;-68
2022/02/10 21:24:14;;;;;;;19.38;11.85;;;;;;;;;;6309472;28;20048;-68
2022/02/10 21:27:28;;;;;;;23.60;11.40;;;;;;;;;;6311781;28;20425;-67
2022/02/10 21:30:30;;;;;;;21.88;10.90;;;;;;;;;;6308607;28;20044;-68
2022/02/10 21:33:46;;;;;;;23.55;12.30;;;;;;;;;;6303186;28;20475;-67
2022/02/10 21:37:00;;;;;;;22.83;11.35;;;;;;;;;;6306049;28;20047;-67
2022/02/10 21:40:13;;;;;;;25.00;11.70;;;;;;;;;;6302055;28;20385;-68
2022/02/10 22:00:26;;;;;;;18.33;10.85;;;;;;;;;;6304481;28;20048;-68
2022/02/10 22:03:56;;;;;;;20.63;11.30;;;;;;;;;;6307947;28;20503;-67
2022/02/10 22:10:28;;;;;;;22.23;10.98;;;;;;;;;;6304105;28;20048;-68
2022/02/10 22:17:07;;;;;;;26.77;11.45;;;;;;;;;;6303175;28;20076;-68
2022/02/10 22:20:13;;;;;;;19.63;11.38;;;;;;;;;;6308315;28;20129;-66
2022/02/10 22:23:19;;;;;;;22.05;11.48;;;;;;;;;;6308799;28;20040;-65
2022/02/10 22:26:24;;;;;;;21.08;11.20;;;;;;;;;;6307506;28;20254;-66
2022/02/10 22:29:30;;;;;;;22.77;11.00;;;;;;;;;;6303863;28;20044;-66
2022/02/10 22:32:45;;;;;;;21.58;9.65;;;;;;;;;;6305560;28;20048;-67
2022/02/10 22:35:47;;;;;;;20.98;8.63;;;;;;;;;;6308487;28;20048;-66
2022/02/10 22:38:53;;;;;;;19.23;8.60;;;;;;;;;;6302105;28;20040;-66
2022/02/10 22:41:54;;;;;;;15.05;7.07;;;;;;;;;;6306748;28;20056;-66
2022/02/10 22:44:56;;;;;;;16.10;8.05;;;;;;;;;;6310964;28;20499;-66
2022/02/10 22:47:57;;;;;;;17.98;8.88;;;;;;;;;;6314232;28;20131;-66
2022/02/10 22:50:59;;;;;;;22.45;8.90;;;;;;;;;;6310454;28;20423;-66
2022/02/10 22:54:04;;;;;;;16.77;8.85;;;;;;;;;;6304901;28;20048;-65
2022/02/10 22:57:05;;;;;;;16.75;7.60;;;;;;;;;;6313772;28;20143;-65
2022/02/10 23:00:09;;;;;;;17.75;7.78;;;;;;;;;;6308131;28;20131;-65
2022/02/10 23:03:10;;;;;;;19.30;7.87;;;;;;;;;;6311805;28;20544;-65
2022/02/10 23:06:13;;;;;;;22.48;8.68;;;;;;;;;;6305585;28;21047;-66
2022/02/10 23:09:27;;;;;;;19.70;8.43;;;;;;;;;;6307781;28;20045;-65
2022/02/10 23:12:29;;;;;;;20.30;9.63;;;;;;;;;;6307760;28;20052;-65
2022/02/10 23:15:36;;;;;;;19.27;8.95;;;;;;;;;;6298367;28;20439;-65
2022/02/10 23:18:38;;;;;;;19.15;10.35;;;;;;;;;;6306024;28;20186;-65
2022/02/10 23:21:40;;;;;;;19.63;9.80;;;;;;;;;;6308473;28;20114;-66
2022/02/10 23:24:43;;;;;;;20.63;9.48;;;;;;;;;;6309135;28;20629;-65
2022/02/10 23:27:44;;;;;;;20.50;10.88;;;;;;;;;;6306001;28;20072;-65
2022/02/10 23:30:46;;;;;;;21.27;9.73;;;;;;;;;;6306302;28;20558;-65
2022/02/10 23:33:52;;;;;;;18.17;8.80;;;;;;;;;;6309590;28;20135;-65
2022/02/10 23:36:55;;;;;;;22.75;9.70;;;;;;;;;;6307238;28;20132;-65
2022/02/10 23:39:58;;;;;;;19.27;9.38;;;;;;;;;;6301057;28;20037;-66
2022/02/10 23:42:59;;;;;;;19.40;8.75;;;;;;;;;;6304486;28;20097;-65
2022/02/10 23:46:01;;;;;;;22.38;9.13;;;;;;;;;;6305906;28;20524;-65
2022/02/10 23:49:02;;;;;;;18.17;9.10;;;;;;;;;;6308877;28;20173;-65
2022/02/10 23:52:07;;;;;;;20.58;9.57;;;;;;;;;;6306917;28;20054;-74
2022/02/10 23:55:17;;;;;;;61.83;34.85;;;;;;;;;;6307789;28;20055;-67
2022/02/10 23:58:29;;;;;;;147.73;75.70;;;;;;;;;;6303703;28;20044;-68
